createdAt,value
2019-03-24T00:00:28.064Z,91.20
2019-03-24T00:05:41.221Z,86.80
2019-03-24T00:08:19.202Z,87.10
2019-03-24T00:10:57.135Z,87.50
2019-03-24T00:13:35.187Z,79.30
2019-03-24T00:18:48.455Z,84.10
2019-03-24T00:21:26.452Z,79.90
2019-03-24T00:24:04.409Z,83.30
2019-03-24T00:26:42.461Z,82.50
2019-03-24T00:29:20.383Z,82.90
2019-03-24T00:31:59.046Z,82.20
2019-03-24T00:34:36.997Z,81.50
2019-03-24T00:37:15.026Z,79.70
2019-03-24T00:39:53.074Z,79.70
2019-03-24T00:42:30.952Z,80.40
2019-03-24T00:45:09.040Z,82.40
2019-03-24T00:47:49.389Z,68.80
2019-03-24T00:50:26.130Z,78.70
2019-03-24T00:53:04.494Z,77.80
2019-03-24T00:55:42.554Z,79.00
2019-03-24T01:03:33.561Z,77.20
2019-03-24T01:06:11.814Z,72.90
2019-03-24T01:08:50.385Z,78.70
2019-03-24T01:11:28.355Z,66.10
2019-03-24T01:14:06.720Z,64.70
2019-03-24T01:16:44.619Z,64.40
2019-03-24T01:19:22.602Z,63.70
2019-03-24T01:22:00.777Z,63.30
2019-03-24T01:24:38.712Z,62.10
2019-03-24T01:27:16.778Z,61.90
2019-03-24T01:29:54.669Z,61.60
2019-03-24T01:32:32.654Z,60.80
2019-03-24T01:35:10.849Z,60.50
2019-03-24T01:37:50.015Z,60.20
2019-03-24T01:40:27.912Z,61.00
2019-03-24T01:43:05.998Z,63.60
2019-03-24T01:45:44.132Z,65.30
2019-03-24T01:48:23.307Z,66.20
2019-03-24T01:51:01.300Z,69.10
2019-03-24T01:53:39.358Z,67.90
2019-03-24T01:56:17.348Z,67.10
2019-03-24T01:58:55.342Z,66.00
2019-03-24T02:01:33.340Z,65.50
2019-03-24T02:04:11.425Z,64.70
2019-03-24T02:06:49.554Z,66.00
2019-03-24T02:09:30.615Z,66.00
2019-03-24T02:12:09.681Z,66.90
2019-03-24T02:14:47.757Z,66.40
2019-03-24T02:17:25.684Z,67.50
2019-03-24T02:20:03.632Z,67.70
2019-03-24T02:22:41.918Z,68.40
2019-03-24T02:25:19.913Z,68.70
2019-03-24T02:27:58.145Z,69.20
2019-03-24T02:30:36.123Z,70.50
2019-03-24T02:33:14.436Z,71.70
2019-03-24T02:35:52.424Z,72.60
2019-03-24T02:38:30.776Z,76.80
2019-03-24T02:41:08.740Z,71.20
2019-03-24T02:43:46.916Z,72.90
2019-03-24T02:46:25.218Z,71.60
2019-03-24T02:49:03.390Z,72.90
2019-03-24T02:51:41.385Z,73.60
2019-03-24T02:54:19.953Z,73.70
2019-03-24T02:56:57.989Z,71.30
2019-03-24T02:59:36.362Z,73.90
2019-03-24T03:02:14.478Z,99.90
2019-03-24T03:04:52.435Z,78.00
2019-03-24T03:07:30.476Z,76.20
2019-03-24T03:10:08.505Z,75.70
2019-03-24T03:12:47.726Z,74.00
2019-03-24T03:15:25.572Z,73.40
2019-03-24T03:18:03.591Z,73.70
2019-03-24T03:20:41.438Z,73.30
2019-03-24T03:23:19.443Z,75.60
2019-03-24T03:25:57.492Z,77.30
2019-03-24T03:28:35.481Z,74.30
2019-03-24T03:31:13.481Z,82.90
2019-03-24T03:33:51.533Z,78.80
2019-03-24T03:36:29.567Z,83.20
2019-03-24T03:41:44.005Z,86.40
2019-03-24T03:46:57.163Z,68.20
2019-03-24T03:49:35.157Z,67.30
2019-03-24T03:52:13.937Z,68.40
2019-03-24T03:57:27.285Z,76.80
2019-03-24T04:00:05.320Z,79.20
2019-03-24T04:02:43.697Z,77.40
2019-03-24T04:07:57.099Z,75.80
2019-03-24T04:10:35.182Z,85.50
2019-03-24T04:13:13.191Z,67.00
2019-03-24T04:15:51.278Z,88.20
2019-03-24T04:18:29.280Z,67.80
2019-03-24T04:21:07.458Z,68.10
2019-03-24T04:26:20.605Z,64.70
2019-03-24T04:28:58.706Z,65.40
2019-03-24T04:31:36.684Z,77.00
2019-03-24T04:34:14.806Z,64.50
2019-03-24T04:36:53.025Z,64.10
2019-03-24T04:39:31.794Z,65.70
2019-03-24T04:42:09.860Z,68.40
2019-03-24T04:44:47.949Z,74.60
2019-03-24T04:47:26.082Z,64.70
2019-03-24T04:50:04.109Z,71.70
2019-03-24T04:52:42.194Z,66.40
2019-03-24T04:55:20.663Z,69.60
2019-03-24T04:57:58.874Z,66.60
2019-03-24T05:00:45.660Z,67.10
2019-03-24T05:03:23.691Z,85.70
2019-03-24T05:06:01.714Z,80.70
2019-03-24T05:08:39.777Z,68.50
2019-03-24T05:11:17.749Z,68.60
2019-03-24T05:13:55.738Z,68.50
2019-03-24T05:16:33.701Z,68.90
2019-03-24T05:19:11.980Z,86.00
2019-03-24T05:21:50.054Z,79.20
2019-03-24T05:24:28.063Z,91.60
2019-03-24T05:27:06.201Z,66.40
2019-03-24T05:29:44.213Z,65.10
2019-03-24T05:32:22.160Z,70.40
2019-03-24T05:35:00.591Z,70.90
2019-03-24T05:37:38.637Z,71.50
2019-03-24T05:40:19.973Z,60.70
2019-03-24T05:42:58.028Z,71.50
2019-03-24T05:48:11.314Z,68.10
2019-03-24T05:50:49.317Z,68.00
2019-03-24T05:56:02.702Z,68.10
2019-03-24T05:58:40.820Z,68.90
2019-03-24T06:01:18.792Z,69.10
2019-03-24T06:06:32.167Z,57.40
2019-03-24T06:09:11.182Z,71.00
2019-03-24T06:11:52.520Z,71.20
2019-03-24T06:14:28.584Z,69.50
2019-03-24T06:19:41.634Z,70.10
2019-03-24T06:22:19.789Z,57.30
2019-03-24T06:27:33.086Z,69.20
2019-03-24T06:30:11.795Z,68.90
2019-03-24T06:32:50.347Z,70.30
2019-03-24T06:35:28.971Z,71.00
2019-03-24T06:38:07.802Z,72.10
2019-03-24T06:40:46.046Z,74.30
2019-03-24T06:43:24.272Z,77.40
2019-03-24T06:46:02.767Z,80.50
2019-03-24T06:48:40.949Z,67.20
2019-03-24T06:51:19.552Z,69.60
2019-03-24T06:53:58.061Z,88.10
2019-03-24T06:56:36.129Z,74.60
2019-03-24T06:59:14.137Z,77.20
2019-03-24T07:01:52.429Z,79.30
2019-03-24T07:04:30.735Z,79.90
2019-03-24T07:07:08.710Z,81.40
2019-03-24T07:09:46.794Z,82.40
2019-03-24T07:12:25.677Z,79.00
2019-03-24T07:15:03.666Z,77.60
2019-03-24T07:17:41.861Z,78.90
2019-03-24T07:20:20.689Z,78.80
2019-03-24T07:22:58.716Z,92.30
2019-03-24T07:25:36.803Z,90.70
2019-03-24T07:28:14.796Z,91.50
2019-03-24T07:30:58.475Z,90.50
2019-03-24T07:33:36.478Z,90.70
2019-03-24T07:36:14.434Z,91.80
2019-03-24T07:38:52.456Z,91.70
2019-03-24T07:41:30.459Z,90.70
2019-03-24T07:44:08.448Z,91.50
2019-03-24T07:46:46.491Z,78.90
2019-03-24T07:49:24.516Z,91.80
2019-03-24T07:52:02.513Z,92.70
2019-03-24T07:54:40.786Z,92.80
2019-03-24T07:57:18.814Z,78.60
2019-03-24T08:05:07.159Z,92.40
2019-03-24T08:07:45.207Z,91.70
2019-03-24T08:10:23.521Z,92.50
2019-03-24T08:13:03.396Z,92.10
2019-03-24T08:15:41.480Z,90.90
2019-03-24T08:18:29.326Z,91.50
2019-03-24T08:21:00.521Z,91.20
2019-03-24T08:23:38.812Z,91.10
2019-03-24T08:28:53.279Z,91.50
2019-03-24T08:31:31.874Z,91.10
2019-03-24T08:34:10.101Z,91.10
2019-03-24T08:36:50.115Z,91.70
2019-03-24T08:42:03.972Z,91.80
2019-03-24T08:44:42.198Z,92.50
2019-03-24T08:52:33.384Z,93.10
2019-03-24T08:55:12.722Z,93.30
2019-03-24T08:57:51.175Z,93.20
2019-03-24T09:00:31.074Z,92.90
2019-03-24T09:03:09.282Z,93.00
2019-03-24T09:05:47.676Z,93.20
2019-03-24T09:11:01.883Z,92.80
2019-03-24T09:13:40.161Z,92.80
2019-03-24T09:18:56.174Z,92.80
2019-03-24T09:21:34.343Z,92.70
2019-03-24T09:24:12.960Z,93.10
2019-03-24T09:26:51.144Z,92.90
2019-03-24T09:29:29.151Z,92.80
2019-03-24T09:34:42.714Z,93.50
2019-03-24T09:37:20.977Z,93.50
2019-03-24T09:39:59.117Z,93.80
2019-03-24T09:42:37.168Z,94.00
2019-03-24T09:45:15.456Z,94.10
2019-03-24T09:47:53.982Z,93.70
2019-03-24T09:50:35.237Z,94.00
2019-03-24T09:53:19.685Z,94.10
2019-03-24T10:02:06.265Z,94.20
2019-03-24T10:05:12.312Z,93.80
2019-03-24T10:07:58.401Z,93.50
2019-03-24T10:10:55.499Z,92.30
2019-03-24T10:19:01.194Z,93.80
2019-03-24T10:21:47.684Z,93.50
2019-03-24T10:24:31.053Z,93.40
2019-03-24T10:27:11.010Z,93.70
2019-03-24T10:29:49.404Z,93.50
2019-03-24T10:35:06.046Z,93.70
2019-03-24T10:37:45.597Z,93.80
2019-03-24T10:43:00.825Z,93.70
2019-03-24T10:45:41.447Z,94.10
2019-03-24T10:48:20.110Z,95.10
2019-03-24T10:50:58.295Z,94.70
2019-03-24T10:53:36.304Z,94.60
2019-03-24T10:56:26.924Z,94.20
2019-03-24T10:59:05.617Z,94.00
2019-03-24T11:01:44.030Z,93.70
2019-03-24T11:04:34.158Z,93.90
2019-03-24T11:07:18.116Z,90.40
2019-03-24T11:10:07.107Z,90.70
2019-03-24T11:12:45.265Z,93.70
2019-03-24T11:15:23.441Z,93.40
2019-03-24T11:18:01.681Z,93.40
2019-03-24T11:20:40.087Z,92.10
2019-03-24T11:23:18.302Z,91.40
2019-03-24T11:25:56.905Z,91.20
2019-03-24T11:28:37.881Z,91.00
2019-03-24T11:31:16.131Z,90.30
2019-03-24T11:33:55.638Z,90.30
2019-03-24T11:36:34.025Z,90.80
2019-03-24T11:39:13.382Z,92.00
2019-03-24T11:41:53.245Z,77.60
2019-03-24T11:44:32.138Z,77.60
2019-03-24T11:47:10.477Z,78.10
2019-03-24T11:49:49.211Z,78.40
2019-03-24T11:52:27.525Z,78.60
2019-03-24T11:55:06.016Z,78.70
2019-03-24T11:57:46.892Z,92.90
2019-03-24T12:00:26.320Z,78.40
2019-03-24T12:03:05.706Z,79.20
2019-03-24T12:05:43.986Z,79.80
2019-03-24T12:08:22.298Z,92.90
2019-03-24T12:11:00.479Z,80.10
2019-03-24T12:13:38.527Z,82.50
2019-03-24T12:16:16.677Z,93.60
2019-03-24T12:18:54.928Z,81.20
2019-03-24T12:21:33.228Z,81.60
2019-03-24T12:24:11.416Z,81.90
2019-03-24T12:26:50.557Z,94.90
2019-03-24T12:29:28.921Z,83.30
2019-03-24T12:32:06.898Z,83.60
2019-03-24T12:34:45.027Z,83.60
2019-03-24T12:37:23.024Z,83.50
2019-03-24T12:40:01.278Z,83.30
2019-03-24T12:42:39.496Z,83.50
2019-03-24T12:45:18.075Z,83.40
2019-03-24T12:47:57.903Z,83.30
2019-03-24T12:50:36.081Z,83.40
2019-03-24T12:53:14.536Z,83.50
2019-03-24T12:55:54.360Z,83.40
2019-03-24T12:58:32.959Z,95.20
2019-03-24T13:01:14.586Z,84.40
2019-03-24T13:03:53.514Z,84.60
2019-03-24T13:06:31.531Z,84.80
2019-03-24T13:09:10.056Z,85.10
2019-03-24T13:11:47.987Z,84.90
2019-03-24T13:14:26.318Z,85.10
2019-03-24T13:17:04.321Z,85.50
2019-03-24T13:19:42.248Z,85.90
2019-03-24T13:22:20.181Z,86.00
2019-03-24T13:24:58.622Z,99.90
2019-03-24T13:27:36.581Z,90.20
2019-03-24T13:30:15.551Z,90.10
2019-03-24T13:32:53.551Z,98.70
2019-03-24T13:35:31.972Z,99.90
2019-03-24T13:38:09.829Z,87.10
2019-03-24T13:40:47.908Z,86.90
2019-03-24T13:43:25.865Z,86.90
2019-03-24T13:46:03.908Z,90.30
2019-03-24T13:48:41.854Z,97.00
2019-03-24T13:51:20.003Z,93.30
2019-03-24T13:53:57.937Z,94.30
2019-03-24T13:56:35.911Z,87.20
2019-03-24T13:59:13.828Z,86.90
2019-03-24T14:01:51.885Z,87.00
2019-03-24T14:04:29.835Z,87.70
2019-03-24T14:07:07.761Z,86.90
2019-03-24T14:09:45.975Z,86.80
2019-03-24T14:12:23.939Z,86.50
2019-03-24T14:15:02.875Z,86.40
2019-03-24T14:17:41.074Z,86.20
2019-03-24T14:20:19.269Z,86.20
2019-03-24T14:22:57.208Z,86.00
2019-03-24T14:25:35.187Z,86.20
2019-03-24T14:28:13.245Z,86.60
2019-03-24T14:30:52.749Z,86.40
2019-03-24T14:33:30.775Z,85.20
2019-03-24T14:36:08.887Z,85.00
2019-03-24T14:38:46.868Z,84.90
2019-03-24T14:41:24.807Z,85.00
2019-03-24T14:44:02.769Z,84.80
2019-03-24T14:46:40.690Z,84.90
2019-03-24T14:49:18.657Z,84.80
2019-03-24T14:51:56.615Z,84.80
2019-03-24T14:54:34.673Z,84.90
2019-03-24T14:57:12.597Z,85.10
2019-03-24T14:59:50.566Z,85.20
2019-03-24T15:02:28.509Z,94.70
2019-03-24T15:05:06.571Z,86.20
2019-03-24T15:07:44.566Z,85.60
2019-03-24T15:10:23.345Z,85.00
2019-03-24T15:13:01.342Z,85.00
2019-03-24T15:15:39.346Z,84.60
2019-03-24T15:18:17.274Z,84.70
2019-03-24T15:21:05.187Z,84.10
2019-03-24T15:23:34.447Z,84.20
2019-03-24T15:26:12.391Z,84.00
2019-03-24T15:28:50.349Z,84.20
2019-03-24T15:31:28.392Z,84.40
2019-03-24T15:34:06.344Z,84.20
2019-03-24T15:36:44.627Z,83.90
2019-03-24T15:39:22.501Z,83.90
2019-03-24T15:42:00.570Z,83.70
2019-03-24T15:44:38.864Z,83.30
2019-03-24T15:47:16.890Z,83.80
2019-03-24T15:49:54.870Z,83.30
2019-03-24T15:52:32.870Z,96.60
2019-03-24T15:55:10.913Z,84.00
2019-03-24T15:57:49.047Z,83.80
2019-03-24T16:00:52.457Z,84.00
2019-03-24T16:03:30.421Z,84.30
2019-03-24T16:06:08.890Z,84.80
2019-03-24T16:08:46.885Z,85.20
2019-03-24T16:11:24.890Z,85.70
2019-03-24T16:14:03.055Z,86.10
2019-03-24T16:16:41.092Z,86.40
2019-03-24T16:19:19.053Z,99.90
2019-03-24T16:21:57.281Z,87.10
2019-03-24T16:24:35.248Z,87.50
2019-03-24T16:27:13.176Z,87.50
2019-03-24T16:29:51.117Z,87.70
2019-03-24T16:32:29.068Z,87.80
2019-03-24T16:35:07.150Z,87.90
2019-03-24T16:37:45.152Z,87.70
2019-03-24T16:40:23.172Z,87.70
2019-03-24T16:43:01.459Z,87.80
2019-03-24T16:45:39.583Z,88.30
2019-03-24T16:48:17.655Z,88.00
2019-03-24T16:50:56.310Z,88.10
2019-03-24T16:53:35.553Z,88.30
2019-03-24T16:56:13.584Z,88.60
2019-03-24T16:58:49.939Z,88.70
2019-03-24T17:01:28.011Z,88.50
2019-03-24T17:04:05.951Z,88.20
2019-03-24T17:06:44.415Z,88.30
2019-03-24T17:09:22.384Z,88.40
2019-03-24T17:12:00.370Z,88.60
2019-03-24T17:14:38.591Z,88.90
2019-03-24T17:17:16.721Z,88.90
2019-03-24T17:19:54.650Z,89.10
2019-03-24T17:22:33.272Z,89.20
2019-03-24T17:25:11.478Z,89.10
2019-03-24T17:27:49.820Z,88.80
2019-03-24T17:30:27.951Z,88.70
2019-03-24T17:33:06.043Z,88.50
2019-03-24T17:35:44.502Z,88.90
2019-03-24T17:38:22.643Z,88.90
2019-03-24T17:41:00.584Z,89.10
2019-03-24T17:43:38.697Z,89.30
2019-03-24T17:46:16.669Z,89.30
2019-03-24T17:48:54.747Z,89.20
2019-03-24T17:51:32.988Z,89.30
2019-03-24T17:54:11.036Z,89.40
2019-03-24T17:56:49.007Z,89.40
2019-03-24T17:59:27.026Z,89.40
2019-03-24T18:05:22.750Z,89.90
2019-03-24T18:08:00.739Z,90.00
2019-03-24T18:10:38.817Z,90.00
2019-03-24T18:13:17.039Z,90.30
2019-03-24T18:15:55.683Z,90.40
2019-03-24T18:18:33.637Z,90.50
2019-03-24T18:21:11.708Z,90.60
2019-03-24T18:23:49.689Z,90.80
2019-03-24T18:26:27.769Z,90.70
2019-03-24T18:29:05.665Z,90.60
2019-03-24T18:31:43.793Z,90.70
2019-03-24T18:34:21.868Z,90.50
2019-03-24T18:36:59.882Z,99.90
2019-03-24T18:39:37.786Z,99.90
2019-03-24T18:42:16.163Z,99.90
2019-03-24T18:44:55.709Z,99.90
2019-03-24T18:47:33.803Z,97.50
2019-03-24T18:50:12.271Z,99.90
2019-03-24T18:52:50.624Z,90.40
2019-03-24T18:55:28.727Z,90.80
2019-03-24T18:58:08.717Z,90.20
2019-03-24T19:00:46.762Z,92.50
2019-03-24T19:03:24.646Z,92.30
2019-03-24T19:06:02.664Z,92.70
2019-03-24T19:08:40.611Z,83.90
2019-03-24T19:11:18.651Z,82.70
2019-03-24T19:13:56.682Z,81.90
2019-03-24T19:16:34.663Z,81.90
2019-03-24T19:19:12.667Z,80.10
2019-03-24T19:21:50.770Z,79.80
2019-03-24T19:24:28.780Z,78.90
2019-03-24T19:27:06.831Z,78.40
2019-03-24T19:29:44.747Z,78.90
2019-03-24T19:32:24.511Z,81.00
2019-03-24T19:35:02.670Z,82.30
2019-03-24T19:37:41.537Z,82.20
2019-03-24T19:40:41.378Z,85.70
2019-03-24T19:43:20.017Z,82.10
2019-03-24T19:45:58.044Z,84.30
2019-03-24T19:48:36.009Z,85.00
2019-03-24T19:51:13.948Z,85.70
2019-03-24T19:53:52.536Z,86.60
2019-03-24T19:56:30.627Z,88.80
2019-03-24T19:59:35.467Z,88.30
2019-03-24T20:02:00.357Z,96.90
2019-03-24T20:04:39.662Z,96.50
2019-03-24T20:09:52.772Z,95.20
2019-03-24T20:15:08.403Z,95.40
2019-03-24T20:17:50.985Z,95.70
2019-03-24T20:20:29.063Z,95.80
2019-03-24T20:23:07.108Z,96.40
2019-03-24T20:30:55.367Z,97.30
2019-03-24T20:33:33.351Z,98.10
2019-03-24T20:36:11.306Z,98.00
2019-03-24T20:38:49.427Z,99.90
2019-03-24T20:41:28.624Z,99.90
2019-03-24T20:44:06.639Z,99.90
2019-03-24T20:46:44.535Z,92.50
2019-03-24T20:49:22.865Z,94.30
2019-03-24T20:52:01.284Z,93.00
2019-03-24T20:54:39.367Z,93.10
2019-03-24T20:57:17.326Z,99.90
2019-03-24T20:59:55.315Z,99.90
2019-03-24T21:02:33.299Z,99.90
2019-03-24T21:05:12.446Z,92.70
2019-03-24T21:07:53.681Z,92.40
2019-03-24T21:10:31.987Z,92.40
2019-03-24T21:13:10.368Z,92.80
2019-03-24T21:15:48.385Z,99.90
2019-03-24T21:18:26.414Z,92.90
2019-03-24T21:21:04.554Z,92.90
2019-03-24T21:23:42.480Z,92.60
2019-03-24T21:26:20.497Z,99.90
2019-03-24T21:28:58.459Z,93.30
2019-03-24T21:31:36.401Z,93.00
2019-03-24T21:34:14.422Z,92.90
2019-03-24T21:36:52.882Z,92.50
2019-03-24T21:39:30.932Z,93.00
2019-03-24T21:42:09.007Z,92.70
2019-03-24T21:44:48.033Z,92.60
2019-03-24T21:47:27.368Z,92.70
2019-03-24T21:50:05.332Z,92.40
2019-03-24T21:52:43.288Z,92.00
2019-03-24T21:55:21.581Z,99.90
2019-03-24T21:58:03.110Z,98.40
2019-03-24T22:00:42.372Z,98.60
2019-03-24T22:03:20.330Z,98.30
2019-03-24T22:05:58.964Z,98.40
2019-03-24T22:11:12.085Z,93.60
2019-03-24T22:13:50.079Z,99.90
2019-03-24T22:16:28.008Z,98.60
2019-03-24T22:19:06.025Z,97.50
2019-03-24T22:21:43.925Z,98.50
2019-03-24T22:26:58.679Z,98.70
2019-03-24T22:29:36.996Z,98.40
2019-03-24T22:37:25.601Z,98.30
2019-03-24T22:40:03.613Z,98.60
2019-03-24T22:42:43.252Z,98.70
2019-03-24T22:45:21.329Z,98.30
2019-03-24T22:50:35.663Z,98.20
2019-03-24T22:53:13.687Z,98.40
2019-03-24T22:55:51.737Z,98.30
2019-03-24T22:58:48.552Z,98.10
2019-03-24T23:01:33.401Z,98.10
2019-03-24T23:04:17.588Z,98.90
2019-03-24T23:06:57.942Z,97.20
2019-03-24T23:09:39.931Z,97.50
2019-03-24T23:12:18.819Z,97.20
2019-03-24T23:14:57.619Z,97.40
2019-03-24T23:17:35.769Z,97.20
2019-03-24T23:22:50.006Z,93.70
2019-03-24T23:25:28.406Z,96.60
2019-03-24T23:28:06.913Z,96.70
2019-03-24T23:30:44.930Z,96.10
2019-03-24T23:33:22.988Z,95.90
2019-03-24T23:43:46.965Z,96.30
2019-03-24T23:46:25.009Z,96.50
2019-03-24T23:49:04.675Z,96.50
2019-03-24T23:51:43.918Z,96.30
2019-03-24T23:54:27.111Z,96.40
2019-03-24T23:57:01.028Z,96.40
